Time;durP1;ratioP1;P1;durP2;ratioP2;P2;SDS_P1;SDS_P2;PMS_P1;PMS_P2;Temp;Humidity;BMP_temperature;BMP_pressure;BME280_temperature;BME280_humidity;BME280_pressure;Samples;Min_cycle;Max_cycle;Signal;HPM_P1;HPM_P2
2022/06/03 00:01:08;;;;;;;4.93;4.10;;;;;;;;;;4191841;34;20118;-67
2022/06/03 00:32:42;;;;;;;5.43;3.92;;;;;;;;;;4819073;28;20208;-58
2022/06/03 00:35:26;;;;;;;3.72;3.30;;;;;;;;;;4212979;34;20123;-58
2022/06/03 00:38:01;;;;;;;6.30;3.90;;;;;;;;;;4214547;34;20114;-58
2022/06/03 00:40:46;;;;;;;3.83;3.42;;;;;;;;;;4205252;34;20090;-59
2022/06/03 00:43:49;;;;;;;6.55;3.22;;;;;;;;;;4208239;34;20113;-58
2022/06/03 00:46:56;;;;;;;6.07;3.50;;;;;;;;;;4218150;34;20113;-58
2022/06/03 00:49:28;;;;;;;7.82;4.00;;;;;;;;;;4217947;34;20211;-61
2022/06/03 00:52:23;;;;;;;6.07;3.45;;;;;;;;;;4213246;34;20104;-64
2022/06/03 00:55:24;;;;;;;3.85;3.45;;;;;;;;;;4167602;34;20226;-60
2022/06/03 00:58:01;;;;;;;3.95;3.30;;;;;;;;;;4172124;34;20109;-57
2022/06/03 01:00:33;;;;;;;6.62;3.75;;;;;;;;;;4208734;34;20544;-57
2022/06/03 01:03:36;;;;;;;7.87;3.50;;;;;;;;;;4195908;34;20213;-57
2022/06/03 01:06:27;;;;;;;8.48;4.93;;;;;;;;;;4180892;34;20556;-62
2022/06/03 01:09:11;;;;;;;9.27;4.37;;;;;;;;;;4213166;34;20097;-62
2022/06/03 01:12:00;;;;;;;10.70;4.62;;;;;;;;;;4222820;34;20473;-62
2022/06/03 01:14:38;;;;;;;9.35;4.12;;;;;;;;;;4209562;34;20113;-62
2022/06/03 01:17:16;;;;;;;6.37;4.22;;;;;;;;;;4222507;34;20110;-62
2022/06/03 01:20:11;;;;;;;6.93;3.95;;;;;;;;;;4209489;34;20120;-62
2022/06/03 01:22:46;;;;;;;9.70;4.05;;;;;;;;;;4209775;34;20196;-62
2022/06/03 01:25:42;;;;;;;9.25;3.72;;;;;;;;;;4222592;34;20517;-62
2022/06/03 01:28:37;;;;;;;5.37;3.85;;;;;;;;;;4222874;34;20109;-60
2022/06/03 01:31:34;;;;;;;12.63;4.28;;;;;;;;;;4222222;34;20489;-59
2022/06/03 01:34:15;;;;;;;5.78;3.58;;;;;;;;;;4209257;34;20137;-59
2022/06/03 01:37:00;;;;;;;9.82;4.93;;;;;;;;;;4200482;34;20121;-59
2022/06/03 01:39:45;;;;;;;13.77;3.97;;;;;;;;;;4208565;34;20120;-59
2022/06/03 01:42:32;;;;;;;23.40;8.75;;;;;;;;;;4208467;34;20206;-58
2022/06/03 01:45:28;;;;;;;19.00;6.93;;;;;;;;;;4208443;34;20137;-59
2022/06/03 01:47:56;;;;;;;10.13;4.18;;;;;;;;;;4208363;34;20209;-59
2022/06/03 01:50:43;;;;;;;9.85;4.43;;;;;;;;;;4208231;34;20113;-59
2022/06/03 01:53:44;;;;;;;5.85;4.35;;;;;;;;;;4208382;34;20122;-59
2022/06/03 01:56:47;;;;;;;8.13;4.37;;;;;;;;;;4192399;34;20102;-59
2022/06/03 01:59:29;;;;;;;6.70;4.62;;;;;;;;;;4208366;34;20221;-60
2022/06/03 02:02:00;;;;;;;8.73;5.03;;;;;;;;;;4208360;34;20085;-60
2022/06/03 02:04:54;;;;;;;8.20;4.55;;;;;;;;;;4208063;34;20137;-60
2022/06/03 02:08:00;;;;;;;7.40;4.25;;;;;;;;;;4192334;34;20128;-60
2022/06/03 02:10:26;;;;;;;;;;;;;;;;;;4198415;34;20124;-60
2022/06/03 02:13:00;;;;;;;9.45;4.70;;;;;;;;;;4219636;34;20004;-60
2022/06/03 02:15:51;;;;;;;6.12;4.60;;;;;;;;;;4219661;34;20215;-60
2022/06/03 02:18:56;;;;;;;9.73;4.53;;;;;;;;;;4219393;34;20097;-60
2022/06/03 02:21:40;;;;;;;5.97;4.03;;;;;;;;;;4219526;34;20442;-60
2022/06/03 02:24:21;;;;;;;11.10;4.87;;;;;;;;;;4219629;34;20124;-60
2022/06/03 02:26:49;;;;;;;7.30;4.47;;;;;;;;;;4219582;34;20119;-59
2022/06/03 02:32:27;;;;;;;12.65;5.18;;;;;;;;;;4219137;34;20107;-60
2022/06/03 02:35:03;;;;;;;9.93;4.80;;;;;;;;;;4219391;34;20105;-60
2022/06/03 02:37:57;;;;;;;8.68;5.47;;;;;;;;;;4199655;34;20525;-60
2022/06/03 02:40:32;;;;;;;12.20;6.05;;;;;;;;;;4205640;34;20105;-60
2022/06/03 02:43:36;;;;;;;9.40;5.40;;;;;;;;;;4205726;34;20290;-60
2022/06/03 02:46:19;;;;;;;7.35;5.78;;;;;;;;;;4205437;34;20192;-60
2022/06/03 02:49:23;;;;;;;13.43;6.00;;;;;;;;;;4192532;34;20117;-60
2022/06/03 02:52:19;;;;;;;13.15;4.72;;;;;;;;;;4205463;34;20106;-60
2022/06/03 02:55:07;;;;;;;8.70;4.68;;;;;;;;;;4205467;34;20513;-60
2022/06/03 02:57:51;;;;;;;11.75;4.90;;;;;;;;;;4205378;34;20104;-60
2022/06/03 03:00:32;;;;;;;12.90;5.03;;;;;;;;;;4205373;34;20209;-60
2022/06/03 03:03:22;;;;;;;19.23;4.53;;;;;;;;;;4205571;34;20122;-60
2022/06/03 03:06:06;;;;;;;14.98;5.37;;;;;;;;;;4205037;34;20194;-60
2022/06/03 03:08:49;;;;;;;10.43;4.85;;;;;;;;;;4205429;34;20122;-60
2022/06/03 03:11:43;;;;;;;11.75;4.72;;;;;;;;;;4180825;34;20102;-60
2022/06/03 03:14:43;;;;;;;9.38;4.75;;;;;;;;;;4192417;34;20141;-60
2022/06/03 03:17:36;;;;;;;11.15;4.40;;;;;;;;;;4191811;34;20177;-60
2022/06/03 03:20:21;;;;;;;7.70;4.00;;;;;;;;;;4204971;34;20117;-60
2022/06/03 03:23:05;;;;;;;5.45;3.40;;;;;;;;;;4205100;34;20563;-60
2022/06/03 03:25:55;;;;;;;7.60;3.35;;;;;;;;;;4204928;34;20534;-60
2022/06/03 03:28:44;;;;;;;6.47;3.67;;;;;;;;;;4192027;34;20115;-60
2022/06/03 03:31:49;;;;;;;6.72;4.28;;;;;;;;;;4192069;34;20113;-60
2022/06/03 03:34:17;;;;;;;8.63;3.42;;;;;;;;;;4163415;34;20114;-60
2022/06/03 03:37:35;;;;;;;8.52;3.47;;;;;;;;;;4199946;34;20186;-59
2022/06/03 03:40:19;;;;;;;11.25;3.90;;;;;;;;;;4190732;34;20160;-59
2022/06/03 03:43:46;;;;;;;8.60;4.32;;;;;;;;;;4204922;34;20535;-59
2022/06/03 03:47:06;;;;;;;4.37;3.30;;;;;;;;;;4160852;34;20651;-60
2022/06/03 03:49:47;;;;;;;9.43;3.20;;;;;;;;;;4161286;34;20518;-60
2022/06/03 03:52:24;;;;;;;8.27;3.10;;;;;;;;;;4200405;34;20124;-60
2022/06/03 03:55:02;;;;;;;5.15;3.05;;;;;;;;;;4204968;34;20165;-59
2022/06/03 03:57:30;;;;;;;6.22;2.53;;;;;;;;;;4204724;34;20124;-58
2022/06/03 04:00:07;;;;;;;4.15;2.97;;;;;;;;;;4204808;34;20089;-59
2022/06/03 04:02:51;;;;;;;3.62;2.42;;;;;;;;;;4191794;34;20109;-59
2022/06/03 04:05:44;;;;;;;2.83;2.50;;;;;;;;;;4204728;34;20106;-59
2022/06/03 04:08:19;;;;;;;5.62;2.60;;;;;;;;;;4205052;34;20110;-59
2022/06/03 04:11:00;;;;;;;3.62;3.33;;;;;;;;;;4204847;34;20117;-59
2022/06/03 04:14:04;;;;;;;5.15;2.87;;;;;;;;;;4205085;34;20542;-60
2022/06/03 04:17:00;;;;;;;8.85;3.08;;;;;;;;;;4204653;34;20086;-60
2022/06/03 04:19:51;;;;;;;3.10;2.50;;;;;;;;;;4204791;34;20461;-60
2022/06/03 04:22:41;;;;;;;4.10;2.90;;;;;;;;;;4191560;34;20118;-60
2022/06/03 04:25:16;;;;;;;4.60;2.70;;;;;;;;;;4204686;34;20561;-60
2022/06/03 04:28:00;;;;;;;4.53;2.65;;;;;;;;;;4191936;34;20129;-59
2022/06/03 04:30:32;;;;;;;6.25;2.85;;;;;;;;;;4203719;34;20165;-59
2022/06/03 04:33:34;;;;;;;4.47;2.20;;;;;;;;;;4191430;34;20118;-60
2022/06/03 04:36:36;;;;;;;4.28;3.42;;;;;;;;;;4203726;34;20123;-60
2022/06/03 04:39:21;;;;;;;3.97;2.60;;;;;;;;;;4204231;34;20134;-60
2022/06/03 04:41:55;;;;;;;9.60;3.12;;;;;;;;;;4204416;34;20441;-60
2022/06/03 04:44:43;;;;;;;5.90;2.87;;;;;;;;;;4204651;34;20099;-60
2022/06/03 04:47:15;;;;;;;4.62;3.00;;;;;;;;;;4191491;34;20193;-60
2022/06/03 04:50:22;;;;;;;4.18;3.28;;;;;;;;;;4204256;34;20109;-60
2022/06/03 04:53:25;;;;;;;4.80;2.60;;;;;;;;;;4190282;34;20220;-60
2022/06/03 04:56:32;;;;;;;6.60;2.87;;;;;;;;;;4204219;34;20116;-60
2022/06/03 04:59:07;;;;;;;4.12;2.70;;;;;;;;;;4191318;34;20237;-60
2022/06/03 05:02:14;;;;;;;3.70;2.90;;;;;;;;;;4204140;34;20208;-60
2022/06/03 05:05:18;;;;;;;4.10;3.58;;;;;;;;;;4202726;34;20104;-59
2022/06/03 05:08:08;;;;;;;4.62;2.90;;;;;;;;;;4204229;34;20116;-60
2022/06/03 05:11:08;;;;;;;8.10;2.90;;;;;;;;;;4204222;34;20109;-60
2022/06/03 05:13:56;;;;;;;3.17;2.83;;;;;;;;;;4179735;34;20124;-60
2022/06/03 05:16:46;;;;;;;5.15;2.83;;;;;;;;;;4204003;34;20594;-60
2022/06/03 05:19:27;;;;;;;2.70;2.10;;;;;;;;;;4203927;34;20132;-60
2022/06/03 05:22:15;;;;;;;12.30;3.30;;;;;;;;;;4203815;34;20205;-60
2022/06/03 05:25:00;;;;;;;4.25;2.40;;;;;;;;;;4204061;34;20221;-59
2022/06/03 05:27:37;;;;;;;3.87;3.15;;;;;;;;;;4203690;34;20133;-59
2022/06/03 05:30:21;;;;;;;4.75;2.60;;;;;;;;;;4203754;34;20140;-60
2022/06/03 05:33:17;;;;;;;6.37;2.47;;;;;;;;;;4203604;34;20129;-60
2022/06/03 05:36:06;;;;;;;3.80;2.60;;;;;;;;;;4190853;34;20118;-60
2022/06/03 05:38:50;;;;;;;5.32;2.70;;;;;;;;;;4199527;34;20218;-61
2022/06/03 05:44:22;;;;;;;7.05;2.78;;;;;;;;;;4206135;34;20518;-60
2022/06/03 05:47:01;;;;;;;5.35;2.58;;;;;;;;;;4192803;34;20126;-64
2022/06/03 05:49:32;;;;;;;12.57;3.47;;;;;;;;;;4205822;34;20516;-61
2022/06/03 05:52:10;;;;;;;3.95;2.42;;;;;;;;;;4205712;34;20570;-60
2022/06/03 05:54:42;;;;;;;3.55;2.83;;;;;;;;;;4192880;34;20116;-60
2022/06/03 05:57:15;;;;;;;9.50;2.33;;;;;;;;;;4192856;34;20502;-60
2022/06/03 06:00:08;;;;;;;4.85;2.60;;;;;;;;;;4205812;34;20114;-60
2022/06/03 06:02:41;;;;;;;7.28;2.15;;;;;;;;;;4205857;34;20185;-60
2022/06/03 06:05:20;;;;;;;8.77;2.53;;;;;;;;;;4192777;34;20185;-60
2022/06/03 06:07:52;;;;;;;4.93;2.78;;;;;;;;;;4192775;34;20113;-59
2022/06/03 06:10:26;;;;;;;6.90;2.65;;;;;;;;;;4205839;34;20133;-60
2022/06/03 06:13:08;;;;;;;8.77;2.50;;;;;;;;;;4205849;34;20169;-60
2022/06/03 06:15:34;;;;;;;4.53;2.92;;;;;;;;;;4205936;34;20121;-60
2022/06/03 06:18:08;;;;;;;4.15;2.70;;;;;;;;;;4205393;34;20126;-60
2022/06/03 06:20:40;;;;;;;4.43;2.22;;;;;;;;;;4205703;34;20101;-60
2022/06/03 06:23:18;;;;;;;8.93;2.67;;;;;;;;;;4205432;34;20506;-60
2022/06/03 06:26:17;;;;;;;4.75;2.78;;;;;;;;;;4192877;34;20218;-58
2022/06/03 06:29:14;;;;;;;3.62;2.22;;;;;;;;;;4205673;34;20175;-60
2022/06/03 06:32:10;;;;;;;4.50;2.30;;;;;;;;;;4205395;34;20114;-60
2022/06/03 06:35:08;;;;;;;2.50;2.30;;;;;;;;;;4205714;34;20113;-60
2022/06/03 06:38:02;;;;;;;2.28;2.00;;;;;;;;;;4194864;34;20094;-60
2022/06/03 06:41:01;;;;;;;5.65;2.42;;;;;;;;;;4205614;34;20470;-60
2022/06/03 06:43:39;;;;;;;4.15;2.40;;;;;;;;;;4205332;34;20291;-60
2022/06/03 06:46:31;;;;;;;2.37;2.08;;;;;;;;;;4205308;34;20335;-59
2022/06/03 06:49:06;;;;;;;2.67;2.22;;;;;;;;;;4205553;34;20097;-58
2022/06/03 06:51:57;;;;;;;3.15;2.05;;;;;;;;;;4192603;34;20206;-58
2022/06/03 06:54:29;;;;;;;3.12;2.20;;;;;;;;;;4191156;34;20133;-58
2022/06/03 06:56:59;;;;;;;3.00;2.30;;;;;;;;;;4205149;34;20109;-60
2022/06/03 06:59:32;;;;;;;2.42;2.22;;;;;;;;;;4180967;34;20108;-58
2022/06/03 07:02:02;;;;;;;4.12;1.80;;;;;;;;;;4205205;34;20112;-60
2022/06/03 07:04:31;;;;;;;4.18;2.53;;;;;;;;;;4205419;34;20113;-60
2022/06/03 07:07:03;;;;;;;6.85;2.30;;;;;;;;;;4192227;34;20106;-60
2022/06/03 07:09:32;;;;;;;3.87;1.83;;;;;;;;;;4205144;34;20203;-60
2022/06/03 07:12:15;;;;;;;4.00;1.87;;;;;;;;;;4205009;34;20224;-60
2022/06/03 07:15:01;;;;;;;1.85;1.73;;;;;;;;;;4192442;34;20096;-60
2022/06/03 07:20:30;;;;;;;6.62;2.47;;;;;;;;;;4205081;34;20136;-60
2022/06/03 07:23:06;;;;;;;5.40;2.78;;;;;;;;;;4192243;34;20546;-60
2022/06/03 07:25:46;;;;;;;4.18;2.15;;;;;;;;;;4192596;34;20537;-60
2022/06/03 07:28:15;;;;;;;5.15;2.47;;;;;;;;;;4192070;34;20122;-59
2022/06/03 07:30:49;;;;;;;3.90;2.25;;;;;;;;;;4205162;34;20121;-60
2022/06/03 07:33:32;;;;;;;5.60;2.30;;;;;;;;;;4192049;34;20208;-60
2022/06/03 07:36:19;;;;;;;5.03;2.05;;;;;;;;;;4191961;34;20189;-60
2022/06/03 07:38:53;;;;;;;2.00;1.80;;;;;;;;;;4192335;34;20098;-60
2022/06/03 07:41:31;;;;;;;3.93;2.10;;;;;;;;;;4205017;34;20113;-60
2022/06/03 07:44:22;;;;;;;2.47;2.20;;;;;;;;;;4191875;34;20147;-60
2022/06/03 07:47:00;;;;;;;3.47;2.40;;;;;;;;;;4201404;34;20208;-60
2022/06/03 07:49:28;;;;;;;8.35;2.10;;;;;;;;;;4192630;34;20121;-60
2022/06/03 07:51:59;;;;;;;2.28;2.08;;;;;;;;;;4204582;34;20118;-59
2022/06/03 07:54:34;;;;;;;3.80;2.22;;;;;;;;;;4191973;34;20130;-60
2022/06/03 07:57:10;;;;;;;9.27;2.33;;;;;;;;;;4191993;34;20698;-60
2022/06/03 07:59:40;;;;;;;2.00;1.90;;;;;;;;;;4204754;34;20220;-58
2022/06/03 08:02:15;;;;;;;2.60;2.40;;;;;;;;;;4191994;34;20138;-59
2022/06/03 08:04:42;;;;;;;3.95;2.10;;;;;;;;;;4203772;34;20176;-60
2022/06/03 08:13:03;;;;;;;4.95;2.50;;;;;;;;;;4204844;34;20201;-59
2022/06/03 08:15:33;;;;;;;7.07;2.03;;;;;;;;;;4204707;34;20507;-59
2022/06/03 08:18:00;;;;;;;2.95;2.17;;;;;;;;;;4204315;34;20145;-59
2022/06/03 08:20:27;;;;;;;5.00;2.35;;;;;;;;;;4204563;34;20120;-58
2022/06/03 08:22:53;;;;;;;2.95;2.50;;;;;;;;;;4204427;34;20133;-59
2022/06/03 08:25:26;;;;;;;2.33;2.12;;;;;;;;;;4204662;34;20090;-59
2022/06/03 08:27:53;;;;;;;3.28;2.40;;;;;;;;;;4191728;34;20144;-60
2022/06/03 08:30:29;;;;;;;3.83;2.45;;;;;;;;;;4191717;34;20102;-60
2022/06/03 08:33:13;;;;;;;2.40;2.20;;;;;;;;;;4204307;34;20522;-60
2022/06/03 08:35:42;;;;;;;3.78;2.40;;;;;;;;;;4191537;34;20659;-60
2022/06/03 08:38:17;;;;;;;4.75;2.10;;;;;;;;;;4191443;34;20153;-59
2022/06/03 08:41:04;;;;;;;4.25;2.20;;;;;;;;;;4204357;34;20165;-59
2022/06/03 08:43:41;;;;;;;4.93;2.10;;;;;;;;;;4204459;34;20213;-59
2022/06/03 08:46:28;;;;;;;3.05;2.05;;;;;;;;;;4204250;34;20133;-60
2022/06/03 08:49:01;;;;;;;3.40;2.28;;;;;;;;;;4204359;34;20218;-60
2022/06/03 08:51:32;;;;;;;3.05;2.60;;;;;;;;;;4204475;34;20118;-60
2022/06/03 08:54:03;;;;;;;3.20;2.30;;;;;;;;;;4204371;34;20109;-60
2022/06/03 08:56:33;;;;;;;3.42;2.95;;;;;;;;;;4191544;34;20506;-60
2022/06/03 08:59:02;;;;;;;2.30;2.10;;;;;;;;;;4204092;34;20121;-60
2022/06/03 09:01:39;;;;;;;2.47;2.25;;;;;;;;;;4204158;34;20105;-60
2022/06/03 09:04:17;;;;;;;4.32;2.20;;;;;;;;;;4204095;34;20121;-60
2022/06/03 09:07:04;;;;;;;2.40;1.95;;;;;;;;;;4204040;34;20224;-59
2022/06/03 09:09:50;;;;;;;2.33;2.00;;;;;;;;;;4204043;34;20679;-60
2022/06/03 09:12:28;;;;;;;2.45;2.25;;;;;;;;;;4204138;34;20145;-60
2022/06/03 09:14:56;;;;;;;4.85;2.00;;;;;;;;;;4204041;34;20117;-59
2022/06/03 09:17:28;;;;;;;4.35;2.33;;;;;;;;;;4205893;34;20533;-60
2022/06/03 09:19:56;;;;;;;3.60;3.05;;;;;;;;;;4206110;34;20123;-60
2022/06/03 09:22:26;;;;;;;3.53;2.28;;;;;;;;;;4206271;34;20121;-60
2022/06/03 09:24:55;;;;;;;5.90;2.35;;;;;;;;;;4193123;34;20121;-60
2022/06/03 09:27:21;;;;;;;3.60;2.20;;;;;;;;;;4206228;34;20180;-61
2022/06/03 09:29:51;;;;;;;5.97;2.50;;;;;;;;;;4206223;34;20197;-60
2022/06/03 09:32:19;;;;;;;3.47;2.33;;;;;;;;;;4192952;34;20126;-61
2022/06/03 09:34:55;;;;;;;2.87;2.10;;;;;;;;;;4192939;34;20127;-60
2022/06/03 09:37:25;;;;;;;5.32;2.45;;;;;;;;;;4192884;34;20118;-60
2022/06/03 09:39:51;;;;;;;3.25;2.55;;;;;;;;;;4192916;34;20274;-60
2022/06/03 09:42:19;;;;;;;7.75;2.50;;;;;;;;;;4193045;34;20292;-60
2022/06/03 09:44:47;;;;;;;4.55;2.15;;;;;;;;;;4193090;34;20531;-60
2022/06/03 09:47:16;;;;;;;6.80;2.37;;;;;;;;;;4192920;34;20442;-61
2022/06/03 09:49:45;;;;;;;4.45;2.28;;;;;;;;;;4205758;34;20559;-59
2022/06/03 09:52:12;;;;;;;3.87;1.92;;;;;;;;;;4193204;34;20129;-60
2022/06/03 09:54:40;;;;;;;2.25;2.05;;;;;;;;;;4192892;34;20300;-60
2022/06/03 09:57:12;;;;;;;2.85;2.40;;;;;;;;;;4192708;34;20141;-59
2022/06/03 09:59:40;;;;;;;6.65;2.70;;;;;;;;;;4205790;34;20507;-59
2022/06/03 10:02:07;;;;;;;4.37;2.05;;;;;;;;;;4192811;34;20217;-59
2022/06/03 10:04:34;;;;;;;6.37;2.10;;;;;;;;;;4192771;34;20182;-59
2022/06/03 10:07:00;;;;;;;7.87;2.40;;;;;;;;;;4205595;34;20101;-59
2022/06/03 10:17:52;;;;;;;3.70;2.37;;;;;;;;;;4194495;34;20225;-59
2022/06/03 10:20:19;;;;;;;2.40;1.90;;;;;;;;;;4205761;34;20090;-59
2022/06/03 10:22:46;;;;;;;6.53;1.90;;;;;;;;;;4205814;34;20160;-59
2022/06/03 10:25:12;;;;;;;1.75;1.62;;;;;;;;;;4205767;34;20282;-59
2022/06/03 10:27:38;;;;;;;2.28;2.08;;;;;;;;;;4204939;34;20581;-60
2022/06/03 10:30:05;;;;;;;2.12;1.92;;;;;;;;;;4205498;34;20105;-59
2022/06/03 10:32:31;;;;;;;2.47;2.20;;;;;;;;;;4205209;34;20122;-60
2022/06/03 10:35:14;;;;;;;3.97;1.95;;;;;;;;;;4205430;34;20117;-59
2022/06/03 10:37:48;;;;;;;3.37;2.40;;;;;;;;;;4205262;34;20208;-59
2022/06/03 10:40:14;;;;;;;2.78;2.55;;;;;;;;;;4192421;34;20253;-59
2022/06/03 10:42:45;;;;;;;7.72;2.50;;;;;;;;;;4205231;34;20096;-60
2022/06/03 10:45:11;;;;;;;5.40;2.30;;;;;;;;;;4205364;34;20180;-59
2022/06/03 10:47:39;;;;;;;3.47;2.20;;;;;;;;;;4205398;34;20113;-59
2022/06/03 10:50:10;;;;;;;5.78;2.30;;;;;;;;;;4205551;34;20213;-59
2022/06/03 11:01:19;;;;;;;2.40;2.20;;;;;;;;;;4194115;34;20125;-59
2022/06/03 11:03:51;;;;;;;2.67;2.12;;;;;;;;;;4205310;34;20109;-59
2022/06/03 11:06:22;;;;;;;4.22;2.40;;;;;;;;;;4205049;34;20538;-60
2022/06/03 11:08:59;;;;;;;3.97;2.10;;;;;;;;;;4192540;34;20439;-59
2022/06/03 11:11:52;;;;;;;2.97;2.30;;;;;;;;;;4205127;34;20109;-60
2022/06/03 11:14:40;;;;;;;2.17;1.77;;;;;;;;;;4204786;34;20121;-59
2022/06/03 11:17:19;;;;;;;7.03;2.80;;;;;;;;;;4204930;34;20102;-60
2022/06/03 11:19:47;;;;;;;2.53;2.33;;;;;;;;;;4192192;34;20100;-60
2022/06/03 11:22:22;;;;;;;4.45;2.20;;;;;;;;;;4205064;34;20097;-60
2022/06/03 11:24:50;;;;;;;3.15;2.58;;;;;;;;;;4192348;34;20126;-60
2022/06/03 11:27:17;;;;;;;8.07;3.30;;;;;;;;;;4205199;34;20118;-59
2022/06/03 11:29:44;;;;;;;5.40;2.40;;;;;;;;;;4204964;34;20097;-60
2022/06/03 11:32:12;;;;;;;3.60;2.15;;;;;;;;;;4191791;34;20866;-60
2022/06/03 11:34:42;;;;;;;7.18;2.30;;;;;;;;;;4192083;34;20538;-60
2022/06/03 11:37:28;;;;;;;3.72;2.65;;;;;;;;;;4204715;34;20450;-60
2022/06/03 11:40:10;;;;;;;2.97;2.60;;;;;;;;;;4204835;34;20125;-60
2022/06/03 11:42:46;;;;;;;4.35;2.80;;;;;;;;;;4192091;34;20101;-59
2022/06/03 11:45:19;;;;;;;3.40;2.47;;;;;;;;;;4205160;34;20124;-60
2022/06/03 11:47:56;;;;;;;4.40;2.15;;;;;;;;;;4191878;34;20121;-60
2022/06/03 11:50:25;;;;;;;9.50;3.72;;;;;;;;;;4204811;34;20286;-60
2022/06/03 11:52:52;;;;;;;6.12;2.58;;;;;;;;;;4205096;34;20113;-60
2022/06/03 11:55:19;;;;;;;5.32;2.50;;;;;;;;;;4192209;34;20129;-60
2022/06/03 11:57:51;;;;;;;6.35;4.28;;;;;;;;;;4204797;34;20106;-60
2022/06/03 12:00:20;;;;;;;3.67;2.72;;;;;;;;;;4204829;34;20110;-60
2022/06/03 12:02:52;;;;;;;3.20;2.40;;;;;;;;;;4192196;34;20522;-60
2022/06/03 12:05:25;;;;;;;10.13;2.40;;;;;;;;;;4204939;34;20093;-60
2022/06/03 12:07:57;;;;;;;1.92;1.75;;;;;;;;;;4204711;34;20221;-60
2022/06/03 12:10:53;;;;;;;9.02;2.42;;;;;;;;;;4191781;34;20197;-60
2022/06/03 12:13:30;;;;;;;4.15;1.98;;;;;;;;;;4204478;34;20547;-60
2022/06/03 12:15:56;;;;;;;2.62;1.55;;;;;;;;;;4204565;34;20104;-60
2022/06/03 12:18:31;;;;;;;8.82;4.00;;;;;;;;;;4204622;34;20499;-60
2022/06/03 12:21:01;;;;;;;7.97;3.33;;;;;;;;;;4204385;34;20149;-59
2022/06/03 12:23:27;;;;;;;7.47;3.58;;;;;;;;;;4204468;34;20515;-60
2022/06/03 12:25:53;;;;;;;6.28;2.90;;;;;;;;;;4204380;34;20193;-60
2022/06/03 12:28:26;;;;;;;2.72;2.03;;;;;;;;;;4204594;34;20110;-60
2022/06/03 12:31:17;;;;;;;5.20;2.30;;;;;;;;;;4191481;34;20102;-59
2022/06/03 12:33:46;;;;;;;4.62;2.10;;;;;;;;;;4192671;34;20557;-59
2022/06/03 12:36:24;;;;;;;3.83;2.28;;;;;;;;;;4204191;34;20098;-60
2022/06/03 12:38:56;;;;;;;2.55;2.35;;;;;;;;;;4204238;34;20585;-62
2022/06/03 12:41:44;;;;;;;4.75;2.92;;;;;;;;;;4190969;34;20122;-59
2022/06/03 12:44:36;;;;;;;4.10;2.30;;;;;;;;;;4180335;34;20153;-58
2022/06/03 12:47:33;;;;;;;6.03;2.17;;;;;;;;;;4190181;34;20125;-60
2022/06/03 12:50:05;;;;;;;8.90;2.08;;;;;;;;;;4203668;34;20553;-58
2022/06/03 12:52:31;;;;;;;3.62;2.20;;;;;;;;;;4179891;34;20503;-60
2022/06/03 12:55:10;;;;;;;2.40;2.17;;;;;;;;;;4204113;34;20106;-60
2022/06/03 12:57:57;;;;;;;2.70;2.12;;;;;;;;;;4191277;34;20210;-61
2022/06/03 13:00:32;;;;;;;5.82;2.08;;;;;;;;;;4204105;34;20537;-61
2022/06/03 13:03:01;;;;;;;2.33;2.03;;;;;;;;;;4191371;34;20557;-62
2022/06/03 13:05:46;;;;;;;2.58;2.33;;;;;;;;;;4203961;34;20208;-61
2022/06/03 13:08:27;;;;;;;;;;;;;;;;;;4204224;34;20117;-62
2022/06/03 13:10:56;;;;;;;7.50;2.80;;;;;;;;;;4204038;34;20060;-62
2022/06/03 13:13:28;;;;;;;5.68;2.58;;;;;;;;;;4204089;34;20114;-63
2022/06/03 13:16:17;;;;;;;3.08;2.15;;;;;;;;;;4204022;34;20139;-61
2022/06/03 13:18:51;;;;;;;3.90;3.08;;;;;;;;;;4204067;34;20110;-62
2022/06/03 13:21:19;;;;;;;8.10;2.83;;;;;;;;;;4203676;34;20106;-64
2022/06/03 13:23:51;;;;;;;2.30;1.90;;;;;;;;;;4191073;34;20104;-60
2022/06/03 13:26:27;;;;;;;2.95;2.55;;;;;;;;;;4203873;34;20105;-58
2022/06/03 13:29:06;;;;;;;5.45;2.78;;;;;;;;;;4203787;34;20109;-61
2022/06/03 13:31:41;;;;;;;2.90;2.00;;;;;;;;;;4203678;34;20507;-61
2022/06/03 13:34:12;;;;;;;4.25;2.60;;;;;;;;;;4203611;34;20196;-61
2022/06/03 13:36:47;;;;;;;5.75;4.85;;;;;;;;;;4203465;34;20445;-62
2022/06/03 13:39:14;;;;;;;;;;;;;;;;;;4204128;34;20165;-61
2022/06/03 13:45:08;;;;;;;17.90;7.05;;;;;;;;;;4203645;34;20534;-61
2022/06/03 13:47:48;;;;;;;11.18;4.45;;;;;;;;;;4203605;34;20125;-63
2022/06/03 13:50:14;;;;;;;3.75;2.67;;;;;;;;;;4203619;34;20109;-61
2022/06/03 13:52:52;;;;;;;2.35;2.05;;;;;;;;;;4203627;34;20117;-64
2022/06/03 13:55:36;;;;;;;5.55;2.20;;;;;;;;;;4203592;34;20723;-62
2022/06/03 13:58:28;;;;;;;4.45;2.40;;;;;;;;;;4203663;34;20120;-62
2022/06/03 14:01:14;;;;;;;5.22;2.78;;;;;;;;;;4203743;34;20102;-62
2022/06/03 14:04:10;;;;;;;12.18;5.70;;;;;;;;;;4192216;34;20194;-60
2022/06/03 14:06:38;;;;;;;;;;;;;;;;;;4205634;34;20375;-61
2022/06/03 14:09:06;;;;;;;6.65;3.00;;;;;;;;;;4192747;34;19992;-61
2022/06/03 14:11:34;;;;;;;2.42;2.22;;;;;;;;;;4205655;34;20181;-61
2022/06/03 14:14:00;;;;;;;16.15;10.27;;;;;;;;;;4205423;34;20458;-61
2022/06/03 14:16:29;;;;;;;5.53;3.97;;;;;;;;;;4205773;34;20086;-63
2022/06/03 14:19:07;;;;;;;14.38;8.52;;;;;;;;;;4192819;34;20430;-62
2022/06/03 14:21:46;;;;;;;9.02;4.93;;;;;;;;;;4205756;34;20112;-62
2022/06/03 14:24:31;;;;;;;7.90;3.45;;;;;;;;;;4192747;34;20126;-61
2022/06/03 14:27:03;;;;;;;5.10;2.60;;;;;;;;;;4205271;34;20110;-62
2022/06/03 14:29:35;;;;;;;10.52;3.97;;;;;;;;;;4192857;34;20189;-62
2022/06/03 14:32:06;;;;;;;10.27;3.33;;;;;;;;;;4205252;34;20595;-62
2022/06/03 14:34:45;;;;;;;11.12;6.07;;;;;;;;;;4192771;34;20124;-62
2022/06/03 14:37:16;;;;;;;12.10;7.05;;;;;;;;;;4192324;34;20090;-60
2022/06/03 14:39:44;;;;;;;31.95;12.93;;;;;;;;;;4192793;34;20218;-61
2022/06/03 14:42:19;;;;;;;9.57;5.95;;;;;;;;;;4192573;34;20101;-61
2022/06/03 14:44:46;;;;;;;5.10;3.70;;;;;;;;;;4192521;34;20091;-61
2022/06/03 14:47:19;;;;;;;6.47;3.70;;;;;;;;;;4192303;34;20104;-62
2022/06/03 14:49:51;;;;;;;10.45;3.25;;;;;;;;;;4204744;34;20185;-62
2022/06/03 14:52:23;;;;;;;6.87;3.37;;;;;;;;;;4192272;34;20129;-65
2022/06/03 14:55:10;;;;;;;9.32;3.78;;;;;;;;;;4192504;34;20560;-62
2022/06/03 14:57:40;;;;;;;12.43;3.60;;;;;;;;;;4205161;34;20119;-62
2022/06/03 15:00:20;;;;;;;13.70;4.75;;;;;;;;;;4205188;34;20185;-61
2022/06/03 15:03:25;;;;;;;18.15;5.05;;;;;;;;;;4192127;34;20491;-63
2022/06/03 15:05:59;;;;;;;7.47;5.30;;;;;;;;;;4188453;34;20546;-63
2022/06/03 15:08:33;;;;;;;7.53;4.05;;;;;;;;;;4192192;34;20110;-61
2022/06/03 15:11:09;;;;;;;7.35;4.20;;;;;;;;;;4192327;34;20126;-60
2022/06/03 15:13:35;;;;;;;6.70;3.28;;;;;;;;;;4191792;34;20205;-61
2022/06/03 15:16:03;;;;;;;7.15;3.37;;;;;;;;;;4205094;34;20237;-59
2022/06/03 15:18:29;;;;;;;10.27;3.40;;;;;;;;;;4204880;34;20112;-62
2022/06/03 15:21:04;;;;;;;5.18;3.22;;;;;;;;;;4204822;34;20185;-60
2022/06/03 15:23:30;;;;;;;4.53;3.30;;;;;;;;;;4180905;34;20545;-63
2022/06/03 15:25:58;;;;;;;4.47;2.78;;;;;;;;;;4204984;34;20118;-60
2022/06/03 15:28:26;;;;;;;10.48;3.30;;;;;;;;;;4192182;34;20117;-59
2022/06/03 15:30:56;;;;;;;5.12;2.70;;;;;;;;;;4204864;34;20224;-62
2022/06/03 15:33:38;;;;;;;7.35;3.40;;;;;;;;;;4204673;34;20220;-62
2022/06/03 15:36:19;;;;;;;3.75;2.87;;;;;;;;;;4204805;34;20121;-62
2022/06/03 15:38:48;;;;;;;3.25;2.72;;;;;;;;;;4204980;34;20124;-61
2022/06/03 15:41:19;;;;;;;7.97;3.60;;;;;;;;;;4192006;34;20096;-60
2022/06/03 15:43:49;;;;;;;8.70;3.37;;;;;;;;;;4204869;34;20192;-60
2022/06/03 15:46:27;;;;;;;3.42;2.95;;;;;;;;;;4204452;34;20552;-61
2022/06/03 15:49:15;;;;;;;4.45;2.45;;;;;;;;;;4204618;34;20101;-63
2022/06/03 15:51:43;;;;;;;2.37;1.92;;;;;;;;;;4204676;34;20105;-65
2022/06/03 15:54:27;;;;;;;9.50;3.55;;;;;;;;;;4204395;34;20188;-63
2022/06/03 15:57:30;;;;;;;5.03;2.65;;;;;;;;;;4204545;34;20217;-63
2022/06/03 16:00:12;;;;;;;5.43;3.42;;;;;;;;;;4204929;34;20517;-60
2022/06/03 16:03:15;;;;;;;6.10;3.40;;;;;;;;;;4191790;34;20577;-61
2022/06/03 16:05:54;;;;;;;20.23;4.05;;;;;;;;;;4204934;34;20204;-62
2022/06/03 16:08:51;;;;;;;11.70;3.72;;;;;;;;;;4192233;34;20293;-62
2022/06/03 16:11:26;;;;;;;5.93;3.17;;;;;;;;;;4204545;34;20519;-62
2022/06/03 16:14:10;;;;;;;;;;;;;;;;;;4205114;34;20504;-63
2022/06/03 16:16:52;;;;;;;10.90;3.20;;;;;;;;;;4204471;34;20016;-60
2022/06/03 16:19:24;;;;;;;4.82;2.97;;;;;;;;;;4204640;34;20192;-63
2022/06/03 16:21:50;;;;;;;3.78;2.65;;;;;;;;;;4191408;34;20617;-62
2022/06/03 16:24:15;;;;;;;4.00;2.62;;;;;;;;;;4204663;34;20110;-62
2022/06/03 16:27:05;;;;;;;8.00;2.78;;;;;;;;;;4204004;34;20137;-62
2022/06/03 16:29:50;;;;;;;3.47;2.90;;;;;;;;;;4204182;34;20498;-63
2022/06/03 16:32:22;;;;;;;7.57;2.80;;;;;;;;;;4204325;34;20197;-63
2022/06/03 16:35:03;;;;;;;6.07;3.20;;;;;;;;;;4204640;34;20128;-64
2022/06/03 16:37:46;;;;;;;6.72;3.97;;;;;;;;;;4204174;34;20184;-62
2022/06/03 16:40:15;;;;;;;10.65;3.87;;;;;;;;;;4191916;34;20100;-66
2022/06/03 16:42:57;;;;;;;4.95;2.62;;;;;;;;;;4204440;34;20125;-62
2022/06/03 16:48:51;;;;;;;8.73;3.25;;;;;;;;;;4204322;34;20146;-61
2022/06/03 16:51:41;;;;;;;8.60;3.60;;;;;;;;;;4204157;34;20458;-62
2022/06/03 16:54:08;;;;;;;12.00;4.43;;;;;;;;;;4204177;34;20109;-61
2022/06/03 16:56:36;;;;;;;5.07;3.58;;;;;;;;;;4204118;34;20122;-61
2022/06/03 16:59:18;;;;;;;15.98;8.25;;;;;;;;;;4191160;34;20129;-62
2022/06/03 17:01:48;;;;;;;8.18;3.70;;;;;;;;;;4204395;34;20213;-61